sensor_id;sensor_type;location;lat;lon;timestamp;P1;durP1;ratioP1;P2;durP2;ratioP2
79456;SDS011;69494;43.654;3.884;2024-02-26T00:01:14;2.70;;;1.00;;
79456;SDS011;69494;43.654;3.884;2024-02-26T00:03:39;2.88;;;0.88;;
79456;SDS011;69494;43.654;3.884;2024-02-26T00:06:07;2.92;;;0.88;;
79456;SDS011;69494;43.654;3.884;2024-02-26T00:08:32;5.93;;;2.08;;
79456;SDS011;69494;43.654;3.884;2024-02-26T00:10:58;2.95;;;1.42;;
79456;SDS011;69494;43.654;3.884;2024-02-26T00:13:23;4.68;;;1.20;;
79456;SDS011;69494;43.654;3.884;2024-02-26T00:15:49;3.17;;;1.23;;
79456;SDS011;69494;43.654;3.884;2024-02-26T00:18:14;6.82;;;2.20;;
79456;SDS011;69494;43.654;3.884;2024-02-26T00:20:39;4.68;;;1.73;;
79456;SDS011;69494;43.654;3.884;2024-02-26T00:25:32;3.33;;;1.50;;
79456;SDS011;69494;43.654;3.884;2024-02-26T00:27:57;2.90;;;1.38;;
79456;SDS011;69494;43.654;3.884;2024-02-26T00:30:22;2.60;;;1.02;;
79456;SDS011;69494;43.654;3.884;2024-02-26T00:32:48;4.10;;;1.35;;
79456;SDS011;69494;43.654;3.884;2024-02-26T00:35:13;3.10;;;1.20;;
79456;SDS011;69494;43.654;3.884;2024-02-26T00:37:40;3.25;;;1.23;;
79456;SDS011;69494;43.654;3.884;2024-02-26T00:40:08;2.40;;;1.15;;
79456;SDS011;69494;43.654;3.884;2024-02-26T00:42:34;2.72;;;1.08;;
79456;SDS011;69494;43.654;3.884;2024-02-26T00:44:59;3.17;;;1.25;;
79456;SDS011;69494;43.654;3.884;2024-02-26T00:47:24;3.72;;;1.10;;
79456;SDS011;69494;43.654;3.884;2024-02-26T00:49:50;3.42;;;1.20;;
79456;SDS011;69494;43.654;3.884;2024-02-26T00:52:15;3.45;;;1.33;;
79456;SDS011;69494;43.654;3.884;2024-02-26T00:54:40;2.50;;;1.10;;
79456;SDS011;69494;43.654;3.884;2024-02-26T00:57:06;3.38;;;1.35;;
79456;SDS011;69494;43.654;3.884;2024-02-26T00:59:31;4.13;;;1.50;;
79456;SDS011;69494;43.654;3.884;2024-02-26T01:01:56;3.10;;;1.25;;
79456;SDS011;69494;43.654;3.884;2024-02-26T01:04:23;3.30;;;1.20;;
79456;SDS011;69494;43.654;3.884;2024-02-26T01:06:49;2.97;;;1.30;;
79456;SDS011;69494;43.654;3.884;2024-02-26T01:09:14;3.28;;;1.33;;
79456;SDS011;69494;43.654;3.884;2024-02-26T01:11:39;3.33;;;1.20;;
79456;SDS011;69494;43.654;3.884;2024-02-26T01:14:05;2.20;;;0.95;;
79456;SDS011;69494;43.654;3.884;2024-02-26T01:16:31;1.95;;;1.10;;
79456;SDS011;69494;43.654;3.884;2024-02-26T01:18:57;2.63;;;0.95;;
79456;SDS011;69494;43.654;3.884;2024-02-26T01:21:22;4.03;;;1.02;;
79456;SDS011;69494;43.654;3.884;2024-02-26T01:23:47;2.55;;;0.80;;
79456;SDS011;69494;43.654;3.884;2024-02-26T01:26:13;3.13;;;1.20;;
79456;SDS011;69494;43.654;3.884;2024-02-26T01:28:38;2.05;;;0.93;;
79456;SDS011;69494;43.654;3.884;2024-02-26T01:31:03;4.93;;;1.83;;
79456;SDS011;69494;43.654;3.884;2024-02-26T01:33:31;3.88;;;1.13;;
79456;SDS011;69494;43.654;3.884;2024-02-26T01:35:57;5.30;;;1.92;;
79456;SDS011;69494;43.654;3.884;2024-02-26T01:38:22;4.78;;;1.98;;
79456;SDS011;69494;43.654;3.884;2024-02-26T01:40:47;2.35;;;0.93;;
79456;SDS011;69494;43.654;3.884;2024-02-26T01:43:13;3.47;;;0.98;;
79456;SDS011;69494;43.654;3.884;2024-02-26T01:45:38;2.20;;;0.90;;
79456;SDS011;69494;43.654;3.884;2024-02-26T01:48:03;3.50;;;1.40;;
79456;SDS011;69494;43.654;3.884;2024-02-26T01:50:29;3.40;;;1.50;;
79456;SDS011;69494;43.654;3.884;2024-02-26T01:52:54;4.30;;;1.38;;
79456;SDS011;69494;43.654;3.884;2024-02-26T01:55:22;4.85;;;1.88;;
79456;SDS011;69494;43.654;3.884;2024-02-26T02:00:16;4.35;;;1.50;;
79456;SDS011;69494;43.654;3.884;2024-02-26T02:02:43;2.90;;;1.27;;
79456;SDS011;69494;43.654;3.884;2024-02-26T02:05:11;2.78;;;1.15;;
79456;SDS011;69494;43.654;3.884;2024-02-26T02:07:39;3.50;;;1.40;;
79456;SDS011;69494;43.654;3.884;2024-02-26T02:10:06;3.65;;;1.13;;
79456;SDS011;69494;43.654;3.884;2024-02-26T02:12:32;3.42;;;1.27;;
79456;SDS011;69494;43.654;3.884;2024-02-26T02:17:24;3.83;;;1.20;;
79456;SDS011;69494;43.654;3.884;2024-02-26T02:19:50;3.60;;;1.30;;
79456;SDS011;69494;43.654;3.884;2024-02-26T02:22:15;3.10;;;1.20;;
79456;SDS011;69494;43.654;3.884;2024-02-26T02:24:41;2.72;;;1.10;;
79456;SDS011;69494;43.654;3.884;2024-02-26T02:27:06;4.13;;;1.00;;
79456;SDS011;69494;43.654;3.884;2024-02-26T02:29:31;2.03;;;0.98;;
79456;SDS011;69494;43.654;3.884;2024-02-26T02:31:57;2.28;;;1.00;;
79456;SDS011;69494;43.654;3.884;2024-02-26T02:34:22;4.07;;;1.23;;
79456;SDS011;69494;43.654;3.884;2024-02-26T02:36:48;2.47;;;1.08;;
79456;SDS011;69494;43.654;3.884;2024-02-26T02:39:16;2.47;;;1.08;;
79456;SDS011;69494;43.654;3.884;2024-02-26T02:41:41;3.58;;;1.10;;
79456;SDS011;69494;43.654;3.884;2024-02-26T02:44:07;5.85;;;1.60;;
79456;SDS011;69494;43.654;3.884;2024-02-26T02:46:32;5.40;;;1.70;;
79456;SDS011;69494;43.654;3.884;2024-02-26T02:48:58;3.47;;;1.35;;
79456;SDS011;69494;43.654;3.884;2024-02-26T02:51:24;2.25;;;1.10;;
79456;SDS011;69494;43.654;3.884;2024-02-26T02:53:49;3.15;;;1.20;;
79456;SDS011;69494;43.654;3.884;2024-02-26T02:56:14;2.28;;;1.08;;
79456;SDS011;69494;43.654;3.884;2024-02-26T02:58:40;3.10;;;1.20;;
79456;SDS011;69494;43.654;3.884;2024-02-26T03:01:05;2.33;;;1.08;;
79456;SDS011;69494;43.654;3.884;2024-02-26T03:03:30;2.95;;;1.10;;
79456;SDS011;69494;43.654;3.884;2024-02-26T03:05:55;3.22;;;1.17;;
79456;SDS011;69494;43.654;3.884;2024-02-26T03:08:21;2.60;;;1.10;;
79456;SDS011;69494;43.654;3.884;2024-02-26T03:10:46;2.78;;;1.33;;
79456;SDS011;69494;43.654;3.884;2024-02-26T03:13:12;3.80;;;1.60;;
79456;SDS011;69494;43.654;3.884;2024-02-26T03:15:37;2.67;;;1.00;;
79456;SDS011;69494;43.654;3.884;2024-02-26T03:18:02;2.58;;;0.98;;
79456;SDS011;69494;43.654;3.884;2024-02-26T03:20:28;5.13;;;1.42;;
79456;SDS011;69494;43.654;3.884;2024-02-26T03:22:53;3.28;;;1.30;;
79456;SDS011;69494;43.654;3.884;2024-02-26T03:25:18;3.05;;;1.20;;
79456;SDS011;69494;43.654;3.884;2024-02-26T03:27:44;3.10;;;1.10;;
79456;SDS011;69494;43.654;3.884;2024-02-26T03:30:09;4.95;;;1.65;;
79456;SDS011;69494;43.654;3.884;2024-02-26T03:32:35;4.70;;;1.50;;
79456;SDS011;69494;43.654;3.884;2024-02-26T03:35:00;3.88;;;1.52;;
79456;SDS011;69494;43.654;3.884;2024-02-26T03:37:25;3.45;;;1.20;;
79456;SDS011;69494;43.654;3.884;2024-02-26T03:39:51;3.15;;;1.08;;
79456;SDS011;69494;43.654;3.884;2024-02-26T03:42:16;4.97;;;1.50;;
79456;SDS011;69494;43.654;3.884;2024-02-26T03:44:42;2.58;;;0.90;;
79456;SDS011;69494;43.654;3.884;2024-02-26T03:47:07;2.72;;;1.20;;
79456;SDS011;69494;43.654;3.884;2024-02-26T03:49:32;3.13;;;1.27;;
79456;SDS011;69494;43.654;3.884;2024-02-26T03:51:58;3.03;;;1.30;;
79456;SDS011;69494;43.654;3.884;2024-02-26T03:54:23;3.90;;;1.70;;
79456;SDS011;69494;43.654;3.884;2024-02-26T03:56:48;4.45;;;1.70;;
79456;SDS011;69494;43.654;3.884;2024-02-26T03:59:14;3.08;;;1.20;;
79456;SDS011;69494;43.654;3.884;2024-02-26T04:01:44;3.17;;;1.60;;
79456;SDS011;69494;43.654;3.884;2024-02-26T04:04:11;4.60;;;1.50;;
79456;SDS011;69494;43.654;3.884;2024-02-26T04:06:36;3.47;;;1.70;;
79456;SDS011;69494;43.654;3.884;2024-02-26T04:09:02;3.53;;;1.48;;
79456;SDS011;69494;43.654;3.884;2024-02-26T04:11:28;5.28;;;1.45;;
79456;SDS011;69494;43.654;3.884;2024-02-26T04:13:54;3.30;;;1.15;;
79456;SDS011;69494;43.654;3.884;2024-02-26T04:16:19;4.20;;;1.42;;
79456;SDS011;69494;43.654;3.884;2024-02-26T04:18:45;3.30;;;1.20;;
79456;SDS011;69494;43.654;3.884;2024-02-26T04:21:10;2.60;;;1.20;;
79456;SDS011;69494;43.654;3.884;2024-02-26T04:23:35;2.92;;;1.10;;
79456;SDS011;69494;43.654;3.884;2024-02-26T04:26:01;2.05;;;0.90;;
79456;SDS011;69494;43.654;3.884;2024-02-26T04:28:26;2.92;;;1.35;;
79456;SDS011;69494;43.654;3.884;2024-02-26T04:30:54;2.90;;;1.27;;
79456;SDS011;69494;43.654;3.884;2024-02-26T04:33:19;2.28;;;1.08;;
79456;SDS011;69494;43.654;3.884;2024-02-26T04:35:45;3.78;;;1.33;;
79456;SDS011;69494;43.654;3.884;2024-02-26T04:38:10;2.78;;;1.00;;
79456;SDS011;69494;43.654;3.884;2024-02-26T04:40:35;2.60;;;1.10;;
79456;SDS011;69494;43.654;3.884;2024-02-26T04:43:01;2.80;;;1.00;;
79456;SDS011;69494;43.654;3.884;2024-02-26T04:45:26;2.88;;;1.25;;
79456;SDS011;69494;43.654;3.884;2024-02-26T04:47:51;3.40;;;1.40;;
79456;SDS011;69494;43.654;3.884;2024-02-26T04:50:17;3.42;;;1.33;;
79456;SDS011;69494;43.654;3.884;2024-02-26T04:52:42;3.20;;;1.20;;
79456;SDS011;69494;43.654;3.884;2024-02-26T04:55:07;3.35;;;1.45;;
79456;SDS011;69494;43.654;3.884;2024-02-26T04:57:33;2.63;;;0.98;;
79456;SDS011;69494;43.654;3.884;2024-02-26T04:59:58;3.85;;;1.50;;
79456;SDS011;69494;43.654;3.884;2024-02-26T05:02:24;2.58;;;1.20;;
79456;SDS011;69494;43.654;3.884;2024-02-26T05:04:49;4.60;;;2.58;;
79456;SDS011;69494;43.654;3.884;2024-02-26T05:07:15;5.03;;;2.30;;
79456;SDS011;69494;43.654;3.884;2024-02-26T05:09:42;4.63;;;1.88;;
79456;SDS011;69494;43.654;3.884;2024-02-26T05:12:08;5.13;;;2.13;;
79456;SDS011;69494;43.654;3.884;2024-02-26T05:14:34;5.18;;;2.20;;
79456;SDS011;69494;43.654;3.884;2024-02-26T05:16:59;6.18;;;2.55;;
79456;SDS011;69494;43.654;3.884;2024-02-26T05:19:25;5.47;;;2.60;;
79456;SDS011;69494;43.654;3.884;2024-02-26T05:21:50;5.97;;;2.78;;
79456;SDS011;69494;43.654;3.884;2024-02-26T05:24:16;5.05;;;2.65;;
79456;SDS011;69494;43.654;3.884;2024-02-26T05:26:42;5.57;;;2.53;;
79456;SDS011;69494;43.654;3.884;2024-02-26T05:29:08;4.82;;;2.35;;
79456;SDS011;69494;43.654;3.884;2024-02-26T05:31:33;5.85;;;2.35;;
79456;SDS011;69494;43.654;3.884;2024-02-26T05:33:59;6.10;;;2.70;;
79456;SDS011;69494;43.654;3.884;2024-02-26T05:36:24;7.15;;;2.58;;
79456;SDS011;69494;43.654;3.884;2024-02-26T05:38:50;6.75;;;2.60;;
79456;SDS011;69494;43.654;3.884;2024-02-26T05:41:16;3.42;;;1.80;;
79456;SDS011;69494;43.654;3.884;2024-02-26T05:43:47;5.15;;;2.47;;
79456;SDS011;69494;43.654;3.884;2024-02-26T05:46:13;4.93;;;2.40;;
79456;SDS011;69494;43.654;3.884;2024-02-26T05:48:41;4.97;;;2.30;;
79456;SDS011;69494;43.654;3.884;2024-02-26T05:51:06;7.57;;;2.53;;
79456;SDS011;69494;43.654;3.884;2024-02-26T05:53:31;4.72;;;2.28;;
79456;SDS011;69494;43.654;3.884;2024-02-26T05:55:57;5.07;;;2.28;;
79456;SDS011;69494;43.654;3.884;2024-02-26T05:58:22;4.30;;;2.03;;
79456;SDS011;69494;43.654;3.884;2024-02-26T06:00:47;4.22;;;1.88;;
79456;SDS011;69494;43.654;3.884;2024-02-26T06:03:13;6.57;;;2.40;;
79456;SDS011;69494;43.654;3.884;2024-02-26T06:05:38;5.10;;;2.05;;
79456;SDS011;69494;43.654;3.884;2024-02-26T06:08:03;6.63;;;2.28;;
79456;SDS011;69494;43.654;3.884;2024-02-26T06:10:30;4.07;;;1.90;;
79456;SDS011;69494;43.654;3.884;2024-02-26T06:12:55;5.35;;;2.10;;
79456;SDS011;69494;43.654;3.884;2024-02-26T06:15:20;6.03;;;2.60;;
79456;SDS011;69494;43.654;3.884;2024-02-26T06:17:46;6.78;;;3.15;;
79456;SDS011;69494;43.654;3.884;2024-02-26T06:20:11;6.18;;;3.03;;
79456;SDS011;69494;43.654;3.884;2024-02-26T06:22:39;6.88;;;2.85;;
79456;SDS011;69494;43.654;3.884;2024-02-26T06:25:05;6.47;;;2.83;;
79456;SDS011;69494;43.654;3.884;2024-02-26T06:27:31;5.40;;;2.40;;
79456;SDS011;69494;43.654;3.884;2024-02-26T06:29:56;6.65;;;3.50;;
79456;SDS011;69494;43.654;3.884;2024-02-26T06:32:21;8.38;;;5.13;;
79456;SDS011;69494;43.654;3.884;2024-02-26T06:34:48;10.77;;;6.72;;
79456;SDS011;69494;43.654;3.884;2024-02-26T06:37:13;9.45;;;5.72;;
79456;SDS011;69494;43.654;3.884;2024-02-26T06:39:38;9.82;;;4.70;;
79456;SDS011;69494;43.654;3.884;2024-02-26T06:42:04;6.15;;;3.10;;
79456;SDS011;69494;43.654;3.884;2024-02-26T06:44:29;6.85;;;3.13;;
79456;SDS011;69494;43.654;3.884;2024-02-26T06:46:57;7.85;;;3.13;;
79456;SDS011;69494;43.654;3.884;2024-02-26T06:49:26;6.25;;;3.25;;
79456;SDS011;69494;43.654;3.884;2024-02-26T06:51:52;7.13;;;2.80;;
79456;SDS011;69494;43.654;3.884;2024-02-26T06:54:17;8.05;;;2.95;;
79456;SDS011;69494;43.654;3.884;2024-02-26T06:56:42;6.57;;;2.60;;
79456;SDS011;69494;43.654;3.884;2024-02-26T06:59:08;5.97;;;2.60;;
79456;SDS011;69494;43.654;3.884;2024-02-26T07:01:33;13.07;;;5.97;;
79456;SDS011;69494;43.654;3.884;2024-02-26T07:03:58;14.82;;;6.38;;
79456;SDS011;69494;43.654;3.884;2024-02-26T07:06:24;12.75;;;6.05;;
79456;SDS011;69494;43.654;3.884;2024-02-26T07:08:50;8.55;;;4.30;;
79456;SDS011;69494;43.654;3.884;2024-02-26T07:11:15;8.88;;;4.68;;
79456;SDS011;69494;43.654;3.884;2024-02-26T07:13:40;7.75;;;3.92;;
79456;SDS011;69494;43.654;3.884;2024-02-26T07:16:06;9.73;;;4.68;;
79456;SDS011;69494;43.654;3.884;2024-02-26T07:18:34;8.40;;;4.00;;
79456;SDS011;69494;43.654;3.884;2024-02-26T07:21:01;8.70;;;4.13;;
79456;SDS011;69494;43.654;3.884;2024-02-26T07:23:27;11.93;;;4.65;;
79456;SDS011;69494;43.654;3.884;2024-02-26T07:25:52;9.90;;;5.05;;
79456;SDS011;69494;43.654;3.884;2024-02-26T07:28:18;5.65;;;2.42;;
79456;SDS011;69494;43.654;3.884;2024-02-26T07:30:44;7.13;;;2.55;;
79456;SDS011;69494;43.654;3.884;2024-02-26T07:33:10;27.90;;;12.75;;
79456;SDS011;69494;43.654;3.884;2024-02-26T07:35:35;26.65;;;10.93;;
79456;SDS011;69494;43.654;3.884;2024-02-26T07:38:01;18.58;;;8.13;;
79456;SDS011;69494;43.654;3.884;2024-02-26T07:40:27;14.75;;;7.47;;
79456;SDS011;69494;43.654;3.884;2024-02-26T07:42:52;13.90;;;8.65;;
79456;SDS011;69494;43.654;3.884;2024-02-26T07:45:17;23.27;;;11.90;;
79456;SDS011;69494;43.654;3.884;2024-02-26T07:47:45;21.23;;;10.93;;
79456;SDS011;69494;43.654;3.884;2024-02-26T07:50:11;20.35;;;11.40;;
79456;SDS011;69494;43.654;3.884;2024-02-26T07:52:37;11.57;;;6.85;;
79456;SDS011;69494;43.654;3.884;2024-02-26T07:55:02;10.65;;;5.55;;
79456;SDS011;69494;43.654;3.884;2024-02-26T07:57:28;11.63;;;4.30;;
79456;SDS011;69494;43.654;3.884;2024-02-26T07:59:53;6.15;;;3.40;;
79456;SDS011;69494;43.654;3.884;2024-02-26T08:02:19;8.98;;;3.85;;
79456;SDS011;69494;43.654;3.884;2024-02-26T08:04:44;8.85;;;3.55;;
79456;SDS011;69494;43.654;3.884;2024-02-26T08:07:10;6.18;;;3.00;;
79456;SDS011;69494;43.654;3.884;2024-02-26T08:09:35;6.03;;;2.92;;
79456;SDS011;69494;43.654;3.884;2024-02-26T08:12:00;5.57;;;2.50;;
79456;SDS011;69494;43.654;3.884;2024-02-26T08:14:26;4.90;;;1.95;;
79456;SDS011;69494;43.654;3.884;2024-02-26T08:16:51;6.45;;;2.28;;
79456;SDS011;69494;43.654;3.884;2024-02-26T08:19:16;4.85;;;2.33;;
79456;SDS011;69494;43.654;3.884;2024-02-26T08:21:42;5.78;;;2.70;;
79456;SDS011;69494;43.654;3.884;2024-02-26T08:24:08;5.70;;;2.40;;
79456;SDS011;69494;43.654;3.884;2024-02-26T08:26:33;5.22;;;2.22;;
79456;SDS011;69494;43.654;3.884;2024-02-26T08:28:59;6.28;;;2.97;;
79456;SDS011;69494;43.654;3.884;2024-02-26T08:31:24;6.90;;;2.45;;
79456;SDS011;69494;43.654;3.884;2024-02-26T08:33:49;4.03;;;2.10;;
79456;SDS011;69494;43.654;3.884;2024-02-26T08:36:15;5.25;;;2.30;;
79456;SDS011;69494;43.654;3.884;2024-02-26T08:38:40;6.47;;;2.30;;
79456;SDS011;69494;43.654;3.884;2024-02-26T08:41:06;5.25;;;2.35;;
79456;SDS011;69494;43.654;3.884;2024-02-26T08:43:31;4.53;;;2.00;;
79456;SDS011;69494;43.654;3.884;2024-02-26T08:45:57;3.80;;;1.83;;
79456;SDS011;69494;43.654;3.884;2024-02-26T08:48:22;6.25;;;1.90;;
79456;SDS011;69494;43.654;3.884;2024-02-26T08:50:48;4.55;;;1.80;;
79456;SDS011;69494;43.654;3.884;2024-02-26T08:53:13;5.25;;;2.20;;
79456;SDS011;69494;43.654;3.884;2024-02-26T08:55:39;4.40;;;1.63;;
79456;SDS011;69494;43.654;3.884;2024-02-26T08:58:04;4.85;;;1.92;;
79456;SDS011;69494;43.654;3.884;2024-02-26T09:00:29;5.35;;;1.98;;
79456;SDS011;69494;43.654;3.884;2024-02-26T09:02:55;5.10;;;2.13;;
79456;SDS011;69494;43.654;3.884;2024-02-26T09:05:21;4.05;;;1.27;;
79456;SDS011;69494;43.654;3.884;2024-02-26T09:07:46;5.25;;;1.58;;
79456;SDS011;69494;43.654;3.884;2024-02-26T09:10:12;7.55;;;2.03;;
79456;SDS011;69494;43.654;3.884;2024-02-26T09:12:38;3.88;;;1.48;;
79456;SDS011;69494;43.654;3.884;2024-02-26T09:15:05;4.15;;;1.58;;
79456;SDS011;69494;43.654;3.884;2024-02-26T09:17:31;3.53;;;1.33;;
79456;SDS011;69494;43.654;3.884;2024-02-26T09:19:56;2.53;;;1.13;;
79456;SDS011;69494;43.654;3.884;2024-02-26T09:22:22;3.55;;;1.50;;
79456;SDS011;69494;43.654;3.884;2024-02-26T09:24:47;3.28;;;1.65;;
79456;SDS011;69494;43.654;3.884;2024-02-26T09:27:15;5.78;;;1.80;;
79456;SDS011;69494;43.654;3.884;2024-02-26T09:29:40;3.63;;;1.55;;
79456;SDS011;69494;43.654;3.884;2024-02-26T09:32:06;3.47;;;1.60;;
79456;SDS011;69494;43.654;3.884;2024-02-26T09:34:31;3.45;;;1.52;;
79456;SDS011;69494;43.654;3.884;2024-02-26T09:36:56;3.97;;;1.20;;
79456;SDS011;69494;43.654;3.884;2024-02-26T09:39:22;6.50;;;1.80;;
79456;SDS011;69494;43.654;3.884;2024-02-26T09:41:48;4.63;;;1.98;;
79456;SDS011;69494;43.654;3.884;2024-02-26T09:44:15;4.78;;;1.77;;
79456;SDS011;69494;43.654;3.884;2024-02-26T09:46:44;11.30;;;2.17;;
79456;SDS011;69494;43.654;3.884;2024-02-26T09:49:10;4.97;;;1.75;;
79456;SDS011;69494;43.654;3.884;2024-02-26T09:51:37;3.50;;;1.52;;
79456;SDS011;69494;43.654;3.884;2024-02-26T09:54:03;4.30;;;1.75;;
79456;SDS011;69494;43.654;3.884;2024-02-26T09:56:29;6.85;;;1.80;;
79456;SDS011;69494;43.654;3.884;2024-02-26T09:58:55;6.18;;;1.83;;
79456;SDS011;69494;43.654;3.884;2024-02-26T10:01:21;8.50;;;1.60;;
79456;SDS011;69494;43.654;3.884;2024-02-26T10:03:51;3.83;;;1.80;;
79456;SDS011;69494;43.654;3.884;2024-02-26T10:06:20;6.80;;;1.40;;
79456;SDS011;69494;43.654;3.884;2024-02-26T10:08:46;4.25;;;0.95;;
79456;SDS011;69494;43.654;3.884;2024-02-26T10:11:14;4.15;;;1.73;;
79456;SDS011;69494;43.654;3.884;2024-02-26T10:13:39;9.10;;;2.33;;
79456;SDS011;69494;43.654;3.884;2024-02-26T10:16:06;4.40;;;1.73;;
79456;SDS011;69494;43.654;3.884;2024-02-26T10:18:54;6.07;;;1.83;;
79456;SDS011;69494;43.654;3.884;2024-02-26T10:21:21;3.35;;;1.13;;
79456;SDS011;69494;43.654;3.884;2024-02-26T10:23:47;2.38;;;0.85;;
79456;SDS011;69494;43.654;3.884;2024-02-26T10:26:13;3.08;;;1.30;;
79456;SDS011;69494;43.654;3.884;2024-02-26T10:28:40;3.30;;;1.42;;
79456;SDS011;69494;43.654;3.884;2024-02-26T10:33:33;2.75;;;0.93;;
79456;SDS011;69494;43.654;3.884;2024-02-26T10:36:05;5.30;;;1.92;;
79456;SDS011;69494;43.654;3.884;2024-02-26T10:38:32;3.95;;;1.38;;
79456;SDS011;69494;43.654;3.884;2024-02-26T10:40:58;3.80;;;1.67;;
79456;SDS011;69494;43.654;3.884;2024-02-26T10:43:26;3.08;;;1.40;;
79456;SDS011;69494;43.654;3.884;2024-02-26T10:45:52;3.72;;;1.17;;
79456;SDS011;69494;43.654;3.884;2024-02-26T10:48:18;1.92;;;1.00;;
79456;SDS011;69494;43.654;3.884;2024-02-26T10:50:44;2.75;;;1.13;;
79456;SDS011;69494;43.654;3.884;2024-02-26T10:53:22;2.53;;;0.98;;
79456;SDS011;69494;43.654;3.884;2024-02-26T10:55:54;3.95;;;1.52;;
79456;SDS011;69494;43.654;3.884;2024-02-26T10:58:22;3.15;;;1.15;;
79456;SDS011;69494;43.654;3.884;2024-02-26T11:00:53;5.47;;;0.93;;
79456;SDS011;69494;43.654;3.884;2024-02-26T11:03:18;3.75;;;1.27;;
79456;SDS011;69494;43.654;3.884;2024-02-26T11:05:48;3.55;;;1.10;;
79456;SDS011;69494;43.654;3.884;2024-02-26T11:08:15;5.05;;;1.40;;
79456;SDS011;69494;43.654;3.884;2024-02-26T11:10:43;3.42;;;1.17;;
79456;SDS011;69494;43.654;3.884;2024-02-26T11:13:09;1.75;;;0.98;;
79456;SDS011;69494;43.654;3.884;2024-02-26T11:15:37;2.75;;;0.82;;
79456;SDS011;69494;43.654;3.884;2024-02-26T11:18:02;2.25;;;0.88;;
79456;SDS011;69494;43.654;3.884;2024-02-26T11:20:29;4.50;;;1.30;;
79456;SDS011;69494;43.654;3.884;2024-02-26T11:22:57;6.15;;;1.27;;
79456;SDS011;69494;43.654;3.884;2024-02-26T11:25:22;2.80;;;1.08;;
79456;SDS011;69494;43.654;3.884;2024-02-26T11:27:52;1.92;;;0.90;;
79456;SDS011;69494;43.654;3.884;2024-02-26T11:30:23;6.25;;;1.60;;
79456;SDS011;69494;43.654;3.884;2024-02-26T11:32:50;1.55;;;0.80;;
79456;SDS011;69494;43.654;3.884;2024-02-26T11:35:17;5.15;;;1.20;;
79456;SDS011;69494;43.654;3.884;2024-02-26T11:37:56;4.07;;;1.20;;
79456;SDS011;69494;43.654;3.884;2024-02-26T11:40:26;3.53;;;1.05;;
79456;SDS011;69494;43.654;3.884;2024-02-26T11:42:51;6.22;;;1.40;;
79456;SDS011;69494;43.654;3.884;2024-02-26T11:46:00;3.97;;;1.27;;
79456;SDS011;69494;43.654;3.884;2024-02-26T11:48:23;5.63;;;1.52;;
79456;SDS011;69494;43.654;3.884;2024-02-26T11:50:53;3.97;;;1.60;;
79456;SDS011;69494;43.654;3.884;2024-02-26T11:53:23;4.35;;;1.48;;
79456;SDS011;69494;43.654;3.884;2024-02-26T11:58:44;4.43;;;1.15;;
79456;SDS011;69494;43.654;3.884;2024-02-26T12:06:50;3.40;;;1.67;;
79456;SDS011;69494;43.654;3.884;2024-02-26T12:12:10;2.88;;;1.08;;
79456;SDS011;69494;43.654;3.884;2024-02-26T12:14:39;4.05;;;1.08;;
79456;SDS011;69494;43.654;3.884;2024-02-26T12:17:07;5.15;;;1.63;;
79456;SDS011;69494;43.654;3.884;2024-02-26T12:19:43;4.15;;;1.30;;
79456;SDS011;69494;43.654;3.884;2024-02-26T12:22:10;4.35;;;1.45;;
79456;SDS011;69494;43.654;3.884;2024-02-26T12:24:38;5.10;;;1.40;;
79456;SDS011;69494;43.654;3.884;2024-02-26T12:27:03;2.72;;;0.85;;
79456;SDS011;69494;43.654;3.884;2024-02-26T12:29:28;3.97;;;0.98;;
79456;SDS011;69494;43.654;3.884;2024-02-26T12:31:54;2.88;;;0.90;;
79456;SDS011;69494;43.654;3.884;2024-02-26T12:34:19;1.10;;;0.40;;
79456;SDS011;69494;43.654;3.884;2024-02-26T12:36:45;3.03;;;0.75;;
79456;SDS011;69494;43.654;3.884;2024-02-26T12:39:10;4.93;;;1.20;;
79456;SDS011;69494;43.654;3.884;2024-02-26T12:41:35;3.50;;;0.93;;
79456;SDS011;69494;43.654;3.884;2024-02-26T12:44:03;6.13;;;0.93;;
79456;SDS011;69494;43.654;3.884;2024-02-26T12:46:29;2.75;;;0.90;;
79456;SDS011;69494;43.654;3.884;2024-02-26T12:48:55;0.57;;;0.20;;
79456;SDS011;69494;43.654;3.884;2024-02-26T12:51:23;1.73;;;0.68;;
79456;SDS011;69494;43.654;3.884;2024-02-26T12:53:50;2.30;;;0.95;;
79456;SDS011;69494;43.654;3.884;2024-02-26T12:56:17;4.85;;;1.25;;
79456;SDS011;69494;43.654;3.884;2024-02-26T12:58:43;0.95;;;0.40;;
79456;SDS011;69494;43.654;3.884;2024-02-26T13:01:13;0.25;;;0.17;;
79456;SDS011;69494;43.654;3.884;2024-02-26T13:03:41;2.53;;;1.00;;
79456;SDS011;69494;43.654;3.884;2024-02-26T13:06:07;3.13;;;1.02;;
79456;SDS011;69494;43.654;3.884;2024-02-26T13:08:33;1.85;;;0.80;;
79456;SDS011;69494;43.654;3.884;2024-02-26T13:10:59;2.67;;;1.10;;
79456;SDS011;69494;43.654;3.884;2024-02-26T13:13:25;2.72;;;1.00;;
79456;SDS011;69494;43.654;3.884;2024-02-26T13:16:00;3.33;;;0.85;;
79456;SDS011;69494;43.654;3.884;2024-02-26T13:18:27;6.80;;;1.25;;
79456;SDS011;69494;43.654;3.884;2024-02-26T13:20:52;2.72;;;0.85;;
79456;SDS011;69494;43.654;3.884;2024-02-26T13:23:18;3.03;;;0.82;;
79456;SDS011;69494;43.654;3.884;2024-02-26T13:25:43;3.22;;;0.93;;
79456;SDS011;69494;43.654;3.884;2024-02-26T13:28:09;3.33;;;0.82;;
79456;SDS011;69494;43.654;3.884;2024-02-26T13:30:35;2.50;;;0.82;;
79456;SDS011;69494;43.654;3.884;2024-02-26T13:33:11;3.05;;;0.98;;
79456;SDS011;69494;43.654;3.884;2024-02-26T13:35:37;3.25;;;1.23;;
79456;SDS011;69494;43.654;3.884;2024-02-26T13:38:04;4.97;;;1.08;;
79456;SDS011;69494;43.654;3.884;2024-02-26T13:40:30;0.75;;;0.30;;
79456;SDS011;69494;43.654;3.884;2024-02-26T13:42:56;2.40;;;0.50;;
79456;SDS011;69494;43.654;3.884;2024-02-26T13:45:21;1.50;;;0.50;;
79456;SDS011;69494;43.654;3.884;2024-02-26T13:47:46;5.00;;;0.90;;
79456;SDS011;69494;43.654;3.884;2024-02-26T13:50:11;1.55;;;0.68;;
79456;SDS011;69494;43.654;3.884;2024-02-26T13:52:37;1.20;;;0.22;;
79456;SDS011;69494;43.654;3.884;2024-02-26T13:55:02;0.60;;;0.25;;
79456;SDS011;69494;43.654;3.884;2024-02-26T13:57:28;2.15;;;0.80;;
79456;SDS011;69494;43.654;3.884;2024-02-26T13:59:54;0.77;;;0.43;;
79456;SDS011;69494;43.654;3.884;2024-02-26T14:02:20;5.07;;;0.77;;
79456;SDS011;69494;43.654;3.884;2024-02-26T14:04:46;3.75;;;0.70;;
79456;SDS011;69494;43.654;3.884;2024-02-26T14:07:11;2.38;;;0.77;;
79456;SDS011;69494;43.654;3.884;2024-02-26T14:09:37;1.25;;;0.45;;
79456;SDS011;69494;43.654;3.884;2024-02-26T14:12:03;4.95;;;0.63;;
79456;SDS011;69494;43.654;3.884;2024-02-26T14:14:29;4.20;;;0.90;;
79456;SDS011;69494;43.654;3.884;2024-02-26T14:16:57;7.28;;;0.88;;
79456;SDS011;69494;43.654;3.884;2024-02-26T14:19:23;2.03;;;0.57;;
79456;SDS011;69494;43.654;3.884;2024-02-26T14:21:48;1.60;;;0.63;;
79456;SDS011;69494;43.654;3.884;2024-02-26T14:24:13;7.32;;;1.10;;
79456;SDS011;69494;43.654;3.884;2024-02-26T14:26:40;0.32;;;0.10;;
79456;SDS011;69494;43.654;3.884;2024-02-26T14:29:05;3.40;;;1.02;;
79456;SDS011;69494;43.654;3.884;2024-02-26T14:31:31;0.40;;;0.20;;
79456;SDS011;69494;43.654;3.884;2024-02-26T14:33:57;1.45;;;0.60;;
79456;SDS011;69494;43.654;3.884;2024-02-26T14:36:22;1.02;;;0.50;;
79456;SDS011;69494;43.654;3.884;2024-02-26T14:38:48;2.80;;;1.33;;
79456;SDS011;69494;43.654;3.884;2024-02-26T14:41:13;1.88;;;0.55;;
79456;SDS011;69494;43.654;3.884;2024-02-26T14:43:39;2.83;;;0.63;;
79456;SDS011;69494;43.654;3.884;2024-02-26T14:46:04;1.70;;;0.57;;
79456;SDS011;69494;43.654;3.884;2024-02-26T14:48:30;1.60;;;0.20;;
79456;SDS011;69494;43.654;3.884;2024-02-26T14:50:56;2.05;;;0.73;;
79456;SDS011;69494;43.654;3.884;2024-02-26T14:53:22;2.88;;;0.70;;
79456;SDS011;69494;43.654;3.884;2024-02-26T14:55:47;1.90;;;0.57;;
79456;SDS011;69494;43.654;3.884;2024-02-26T14:58:12;2.50;;;0.63;;
79456;SDS011;69494;43.654;3.884;2024-02-26T15:00:38;4.13;;;0.50;;
79456;SDS011;69494;43.654;3.884;2024-02-26T15:03:04;2.20;;;0.57;;